createdAt,value
2019-01-20T00:02:03.286Z,-4.06
2019-01-20T00:04:34.022Z,-4.04
2019-01-20T00:07:04.775Z,-3.95
2019-01-20T00:09:35.674Z,-3.98
2019-01-20T00:12:06.425Z,-3.98
2019-01-20T00:14:37.221Z,-3.95
2019-01-20T00:17:07.877Z,-3.90
2019-01-20T00:19:38.566Z,-3.89
2019-01-20T00:22:09.211Z,-3.90
2019-01-20T00:24:40.068Z,-3.91
2019-01-20T00:27:10.891Z,-3.97
2019-01-20T00:29:41.565Z,-3.97
2019-01-20T00:32:12.283Z,-3.97
2019-01-20T00:34:43.062Z,-4.01
2019-01-20T00:37:13.840Z,-4.03
2019-01-20T00:39:44.519Z,-4.05
2019-01-20T00:42:15.333Z,-4.14
2019-01-20T00:44:46.100Z,-4.26
2019-01-20T00:47:16.935Z,-4.28
2019-01-20T00:49:47.757Z,-4.40
2019-01-20T00:52:18.520Z,-4.46
2019-01-20T00:54:49.227Z,-4.42
2019-01-20T00:57:19.945Z,-4.38
2019-01-20T00:59:50.704Z,-4.38
2019-01-20T01:02:21.412Z,-4.31
2019-01-20T01:04:52.265Z,-4.34
2019-01-20T01:07:23.036Z,-4.32
2019-01-20T01:09:53.807Z,-4.31
2019-01-20T01:12:24.796Z,-4.41
2019-01-20T01:14:55.548Z,-4.45
2019-01-20T01:17:26.261Z,-4.41
2019-01-20T01:19:56.930Z,-4.35
2019-01-20T01:22:27.685Z,-4.31
2019-01-20T01:24:58.402Z,-4.36
2019-01-20T01:27:29.251Z,-4.35
2019-01-20T01:29:59.944Z,-4.35
2019-01-20T01:32:30.617Z,-4.34
2019-01-20T01:35:01.309Z,-4.38
2019-01-20T01:37:31.925Z,-4.39
2019-01-20T01:40:06.739Z,-4.40
2019-01-20T01:42:37.648Z,-4.35
2019-01-20T01:45:14.919Z,-4.39
2019-01-20T01:47:45.901Z,-4.33
2019-01-20T01:50:18.308Z,-4.37
2019-01-20T01:52:49.037Z,-4.35
2019-01-20T01:55:19.856Z,-4.33
2019-01-20T01:57:50.570Z,-4.33
2019-01-20T02:00:24.022Z,-4.35
2019-01-20T02:02:54.677Z,-4.33
2019-01-20T02:05:25.405Z,-4.34
2019-01-20T02:07:56.111Z,-4.33
2019-01-20T02:10:26.832Z,-4.44
2019-01-20T02:12:57.495Z,-4.56
2019-01-20T02:15:28.266Z,-4.52
2019-01-20T02:17:59.027Z,-4.53
2019-01-20T02:20:29.789Z,-4.51
2019-01-20T02:23:00.664Z,-4.54
2019-01-20T02:25:31.432Z,-4.58
2019-01-20T02:28:02.302Z,-4.56
2019-01-20T02:30:33.452Z,-4.57
2019-01-20T02:33:04.203Z,-4.59
2019-01-20T02:35:34.891Z,-4.62
2019-01-20T02:38:05.711Z,-4.63
2019-01-20T02:40:36.444Z,-4.61
2019-01-20T02:43:07.166Z,-4.59
2019-01-20T02:45:37.906Z,-4.58
2019-01-20T02:48:08.609Z,-4.66
2019-01-20T02:50:39.355Z,-4.83
2019-01-20T02:53:10.082Z,-4.64
2019-01-20T02:55:40.863Z,-4.66
2019-01-20T02:58:11.656Z,-4.64
2019-01-20T03:00:42.369Z,-4.70
2019-01-20T03:03:13.037Z,-4.70
2019-01-20T03:05:43.937Z,-4.76
2019-01-20T03:08:14.640Z,-4.78
2019-01-20T03:10:45.407Z,-4.77
2019-01-20T03:13:16.113Z,-4.72
2019-01-20T03:15:46.870Z,-4.75
2019-01-20T03:18:17.623Z,-4.75
2019-01-20T03:20:48.408Z,-4.74
2019-01-20T03:23:19.187Z,-4.71
2019-01-20T03:25:49.900Z,-4.72
2019-01-20T03:28:20.699Z,-4.72
2019-01-20T03:30:51.381Z,-4.70
2019-01-20T03:33:21.863Z,-4.62
2019-01-20T03:35:52.424Z,-4.59
2019-01-20T03:38:22.943Z,-4.59
2019-01-20T03:40:53.414Z,-4.64
2019-01-20T03:43:23.976Z,-4.59
2019-01-20T03:45:54.494Z,-4.61
2019-01-20T03:48:25.031Z,-4.62
2019-01-20T03:50:55.584Z,-4.57
2019-01-20T03:53:26.088Z,-4.52
2019-01-20T03:55:56.689Z,-4.42
2019-01-20T03:58:27.296Z,-4.37
2019-01-20T04:00:57.817Z,-4.29
2019-01-20T04:03:28.299Z,-4.26
2019-01-20T04:05:58.875Z,-4.15
2019-01-20T04:08:29.388Z,-4.07
2019-01-20T04:10:59.858Z,-4.03
2019-01-20T04:13:30.436Z,-4.00
2019-01-20T04:16:00.921Z,-3.95
2019-01-20T04:18:31.411Z,-3.87
2019-01-20T04:21:01.963Z,-3.80
2019-01-20T04:23:32.521Z,-3.81
2019-01-20T04:26:03.010Z,-3.77
2019-01-20T04:28:33.570Z,-3.71
2019-01-20T04:31:04.086Z,-3.65
2019-01-20T04:33:34.591Z,-3.68
2019-01-20T04:36:05.441Z,-3.67
2019-01-20T04:38:35.983Z,-3.64
2019-01-20T04:41:06.482Z,-3.67
2019-01-20T04:43:37.064Z,-3.68
2019-01-20T04:46:07.573Z,-3.68
2019-01-20T04:48:38.087Z,-3.67
2019-01-20T04:51:08.691Z,-3.65
2019-01-20T04:53:39.764Z,-3.59
2019-01-20T04:56:10.267Z,-3.54
2019-01-20T04:58:40.828Z,-3.53
2019-01-20T05:01:11.383Z,-3.52
2019-01-20T05:03:41.898Z,-3.52
2019-01-20T05:06:12.474Z,-3.60
2019-01-20T05:08:42.961Z,-3.61
2019-01-20T05:11:13.472Z,-3.62
2019-01-20T05:13:44.053Z,-3.67
2019-01-20T05:16:14.540Z,-3.67
2019-01-20T05:18:45.078Z,-3.63
2019-01-20T05:21:15.595Z,-3.62
2019-01-20T05:23:46.092Z,-3.57
2019-01-20T05:26:16.595Z,-3.53
2019-01-20T05:28:47.141Z,-3.49
2019-01-20T05:31:17.686Z,-3.49
2019-01-20T05:33:48.190Z,-3.48
2019-01-20T05:36:18.731Z,-3.47
2019-01-20T05:38:49.222Z,-3.44
2019-01-20T05:41:19.729Z,-3.42
2019-01-20T05:43:50.350Z,-3.45
2019-01-20T05:46:20.864Z,-3.43
2019-01-20T05:48:51.265Z,-3.47
2019-01-20T05:51:22.657Z,-3.57
2019-01-20T05:53:53.166Z,-3.58
2019-01-20T05:56:23.661Z,-3.57
2019-01-20T05:58:54.205Z,-3.58
2019-01-20T06:01:24.714Z,-3.53
2019-01-20T06:03:55.202Z,-3.49
2019-01-20T06:06:25.763Z,-3.47
2019-01-20T06:08:56.244Z,-3.50
2019-01-20T06:11:26.765Z,-3.38
2019-01-20T06:13:57.325Z,-3.52
2019-01-20T06:16:27.806Z,-3.50
2019-01-20T06:18:58.302Z,-3.44
2019-01-20T06:21:28.869Z,-3.41
2019-01-20T06:23:59.388Z,-3.39
2019-01-20T06:26:29.888Z,-3.41
2019-01-20T06:29:00.465Z,-3.46
2019-01-20T06:31:30.944Z,-3.47
2019-01-20T06:34:01.429Z,-3.44
2019-01-20T06:36:31.984Z,-3.49
2019-01-20T06:39:03.059Z,-3.45
2019-01-20T06:41:33.469Z,-3.43
2019-01-20T06:44:04.085Z,-3.38
2019-01-20T06:46:34.573Z,-3.45
2019-01-20T06:49:05.057Z,-3.37
2019-01-20T06:51:35.616Z,-3.40
2019-01-20T06:54:06.177Z,-3.45
2019-01-20T06:56:36.683Z,-3.47
2019-01-20T06:59:07.286Z,-3.41
2019-01-20T07:01:37.768Z,-3.54
2019-01-20T07:04:08.355Z,-3.48
2019-01-20T07:06:38.908Z,-3.47
2019-01-20T07:09:10.194Z,-3.51
2019-01-20T07:11:40.697Z,-3.59
2019-01-20T07:14:11.299Z,-3.56
2019-01-20T07:16:41.796Z,-3.56
2019-01-20T07:19:12.298Z,-3.53
2019-01-20T07:21:42.861Z,-3.51
2019-01-20T07:24:13.289Z,-3.60
2019-01-20T07:26:43.805Z,-3.56
2019-01-20T07:29:14.359Z,-3.52
2019-01-20T07:31:44.857Z,-3.40
2019-01-20T07:34:15.405Z,-3.45
2019-01-20T07:36:45.973Z,-3.51
2019-01-20T07:39:16.502Z,-3.51
2019-01-20T07:41:47.007Z,-3.51
2019-01-20T07:44:17.581Z,-3.54
2019-01-20T07:46:48.090Z,-3.59
2019-01-20T07:49:18.587Z,-3.54
2019-01-20T07:51:49.197Z,-3.57
2019-01-20T07:54:19.754Z,-3.61
2019-01-20T07:56:50.279Z,-3.46
2019-01-20T07:59:20.858Z,-3.51
2019-01-20T08:01:51.410Z,-3.47
2019-01-20T08:04:21.949Z,-3.47
2019-01-20T08:06:52.424Z,-3.42
2019-01-20T08:09:22.924Z,-3.38
2019-01-20T08:11:53.434Z,-3.34
2019-01-20T08:14:23.995Z,-3.24
2019-01-20T08:16:54.532Z,-3.20
2019-01-20T08:19:25.010Z,-3.18
2019-01-20T08:21:56.356Z,-3.18
2019-01-20T08:24:26.904Z,-3.12
2019-01-20T08:26:57.426Z,-3.08
2019-01-20T08:29:28.020Z,-3.00
2019-01-20T08:31:58.524Z,-2.98
2019-01-20T08:34:29.072Z,-3.01
2019-01-20T08:36:59.627Z,-3.05
2019-01-20T08:39:30.139Z,-2.91
2019-01-20T08:42:00.650Z,-2.78
2019-01-20T08:44:39.317Z,-2.81
2019-01-20T08:47:38.180Z,-2.54
2019-01-20T08:50:16.621Z,-2.55
2019-01-20T08:52:47.105Z,-2.50
2019-01-20T08:55:18.587Z,-2.41
2019-01-20T08:57:49.112Z,-2.39
2019-01-20T09:00:19.945Z,-2.31
2019-01-20T09:02:50.475Z,-2.20
2019-01-20T09:05:21.003Z,-2.24
2019-01-20T09:07:51.544Z,-2.16
2019-01-20T09:10:26.057Z,-2.21
2019-01-20T09:13:01.412Z,-2.22
2019-01-20T09:15:31.965Z,-2.20
2019-01-20T09:18:02.466Z,-2.14
2019-01-20T09:20:33.833Z,-2.01
2019-01-20T09:23:04.381Z,-2.02
2019-01-20T09:25:34.803Z,-1.94
2019-01-20T09:28:05.419Z,-1.84
2019-01-20T09:30:35.994Z,-1.79
2019-01-20T09:33:25.616Z,-1.77
2019-01-20T09:35:57.151Z,-1.85
2019-01-20T09:38:27.815Z,-1.92
2019-01-20T09:40:58.460Z,-1.86
2019-01-20T09:43:29.178Z,-1.88
2019-01-20T09:45:59.679Z,-1.83
2019-01-20T09:48:30.377Z,-1.92
2019-01-20T09:51:01.003Z,-1.71
2019-01-20T09:53:31.515Z,-1.54
2019-01-20T09:56:02.150Z,-1.47
2019-01-20T09:58:32.839Z,-1.42
2019-01-20T10:01:03.471Z,-1.32
2019-01-20T10:03:34.465Z,-1.32
2019-01-20T10:06:05.406Z,-1.28
2019-01-20T10:08:36.104Z,-1.24
2019-01-20T10:11:06.696Z,-1.25
2019-01-20T10:13:37.559Z,-1.15
2019-01-20T10:16:08.236Z,-0.99
2019-01-20T10:18:38.790Z,-0.90
2019-01-20T10:21:09.415Z,-0.93
2019-01-20T10:23:40.611Z,-0.90
2019-01-20T10:26:11.253Z,-0.83
2019-01-20T10:28:42.067Z,-0.86
2019-01-20T10:31:12.909Z,-0.88
2019-01-20T10:33:43.602Z,-0.82
2019-01-20T10:36:14.344Z,-0.80
2019-01-20T10:38:45.108Z,-0.85
2019-01-20T10:41:15.614Z,-0.75
2019-01-20T10:43:46.418Z,-0.81
2019-01-20T10:46:17.185Z,-0.94
2019-01-20T10:48:47.788Z,-0.95
2019-01-20T10:51:18.525Z,-1.01
2019-01-20T10:53:53.065Z,-1.03
2019-01-20T10:56:21.427Z,-1.02
2019-01-20T10:58:52.575Z,-1.08
2019-01-20T11:01:23.256Z,-1.09
2019-01-20T11:03:53.879Z,-1.13
2019-01-20T11:06:24.530Z,-1.13
2019-01-20T11:08:55.760Z,-1.11
2019-01-20T11:11:26.375Z,-1.12
2019-01-20T11:13:57.258Z,-1.12
2019-01-20T11:16:27.943Z,-1.16
2019-01-20T11:18:58.516Z,-1.14
2019-01-20T11:21:29.369Z,-1.15
2019-01-20T11:24:00.507Z,-1.18
2019-01-20T11:26:31.171Z,-1.18
2019-01-20T11:29:01.773Z,-1.15
2019-01-20T11:31:32.392Z,-1.15
2019-01-20T11:34:03.056Z,-1.12
2019-01-20T11:36:33.917Z,-1.08
2019-01-20T11:39:07.751Z,-1.08
2019-01-20T11:41:38.422Z,-1.04
2019-01-20T11:44:09.003Z,-1.02
2019-01-20T11:46:39.551Z,-0.96
2019-01-20T11:49:10.275Z,-0.96
2019-01-20T11:51:40.907Z,-0.92
2019-01-20T11:54:11.574Z,-0.91
2019-01-20T11:56:42.243Z,-0.89
2019-01-20T11:59:13.930Z,-0.88
2019-01-20T12:01:44.435Z,-0.85
2019-01-20T12:04:15.103Z,-0.80
2019-01-20T12:06:45.649Z,-0.76
2019-01-20T12:09:16.256Z,-0.75
2019-01-20T12:11:47.364Z,-0.71
2019-01-20T12:14:24.013Z,-0.64
2019-01-20T12:16:51.543Z,-0.64
2019-01-20T12:19:28.516Z,-0.68
2019-01-20T12:21:58.750Z,-0.69
2019-01-20T12:24:31.496Z,-0.66
2019-01-20T12:27:02.503Z,-0.62
2019-01-20T12:29:33.252Z,-0.60
2019-01-20T12:32:04.091Z,-0.60
2019-01-20T12:34:34.766Z,-0.53
2019-01-20T12:37:05.663Z,-0.53
2019-01-20T12:39:36.449Z,-0.50
2019-01-20T12:42:07.346Z,-0.50
2019-01-20T12:44:37.991Z,-0.44
2019-01-20T12:47:08.589Z,-0.39
2019-01-20T12:49:39.187Z,-0.36
2019-01-20T12:52:10.061Z,-0.33
2019-01-20T12:54:41.129Z,-0.39
2019-01-20T12:57:11.955Z,-0.36
2019-01-20T12:59:42.629Z,-0.31
2019-01-20T13:02:13.351Z,-0.32
2019-01-20T13:04:44.004Z,-0.24
2019-01-20T13:07:14.673Z,-0.19
2019-01-20T13:09:45.308Z,-0.21
2019-01-20T13:12:15.926Z,-0.16
2019-01-20T13:14:46.526Z,-0.18
2019-01-20T13:17:17.186Z,-0.14
2019-01-20T13:19:47.675Z,-0.14
2019-01-20T13:22:18.337Z,-0.15
2019-01-20T13:24:48.849Z,-0.19
2019-01-20T13:27:19.429Z,-0.20
2019-01-20T13:29:50.076Z,-0.17
2019-01-20T13:32:20.757Z,-0.15
2019-01-20T13:34:51.307Z,-0.16
2019-01-20T13:37:22.325Z,-0.14
2019-01-20T13:39:53.158Z,-0.14
2019-01-20T13:42:24.005Z,-0.12
2019-01-20T13:44:54.610Z,-0.19
2019-01-20T13:47:25.167Z,-0.20
2019-01-20T13:49:55.776Z,-0.19
2019-01-20T13:52:26.351Z,-0.16
2019-01-20T13:54:56.957Z,-0.14
2019-01-20T13:57:27.548Z,-0.17
2019-01-20T13:59:58.295Z,-0.17
2019-01-20T14:02:28.875Z,-0.19
2019-01-20T14:04:59.496Z,-0.26
2019-01-20T14:07:30.083Z,-0.29
2019-01-20T14:10:00.720Z,-0.29
2019-01-20T14:12:31.272Z,-0.34
2019-01-20T14:15:01.819Z,-0.37
2019-01-20T14:17:32.434Z,-0.47
2019-01-20T14:20:02.960Z,-0.45
2019-01-20T14:22:34.010Z,-0.51
2019-01-20T14:25:04.753Z,-0.52
2019-01-20T14:27:35.348Z,-0.55
2019-01-20T14:30:08.849Z,-0.54
2019-01-20T14:32:39.479Z,-0.51
2019-01-20T14:35:11.350Z,-0.49
2019-01-20T14:37:42.005Z,-0.47
2019-01-20T14:40:14.367Z,-0.48
2019-01-20T14:42:44.995Z,-0.49
2019-01-20T14:45:16.359Z,-0.54
2019-01-20T14:47:47.132Z,-0.60
2019-01-20T14:50:26.465Z,-0.68
2019-01-20T14:52:57.353Z,-0.70
2019-01-20T14:55:27.901Z,-0.69
2019-01-20T14:57:58.557Z,-0.68
2019-01-20T15:00:35.822Z,-0.72
2019-01-20T15:03:08.009Z,-0.73
2019-01-20T15:05:38.687Z,-0.78
2019-01-20T15:08:10.590Z,-0.84
2019-01-20T15:10:41.140Z,-0.81
2019-01-20T15:13:11.829Z,-0.84
2019-01-20T15:15:42.742Z,-0.87
2019-01-20T15:18:13.314Z,-0.92
2019-01-20T15:20:44.052Z,-1.00
2019-01-20T15:23:14.671Z,-1.05
2019-01-20T15:25:45.293Z,-1.15
2019-01-20T15:28:15.865Z,-1.24
2019-01-20T15:30:46.487Z,-1.34
2019-01-20T15:33:36.172Z,-1.38
2019-01-20T15:36:06.815Z,-1.39
2019-01-20T15:38:37.339Z,-1.45
2019-01-20T15:41:09.135Z,-1.50
2019-01-20T15:43:40.595Z,-1.57
2019-01-20T15:46:11.187Z,-1.59
2019-01-20T15:48:41.762Z,-1.57
2019-01-20T15:51:12.331Z,-1.51
2019-01-20T15:53:42.921Z,-1.53
2019-01-20T15:56:13.497Z,-1.58
2019-01-20T15:58:44.103Z,-1.64
2019-01-20T16:01:14.734Z,-1.72
2019-01-20T16:03:45.336Z,-1.84
2019-01-20T16:06:15.963Z,-1.89
2019-01-20T16:08:46.508Z,-1.93
2019-01-20T16:11:17.896Z,-1.91
2019-01-20T16:13:48.578Z,-2.09
2019-01-20T16:16:19.118Z,-2.13
2019-01-20T16:18:49.665Z,-2.24
2019-01-20T16:21:20.482Z,-2.25
2019-01-20T16:23:51.103Z,-2.26
2019-01-20T16:26:21.680Z,-2.35
2019-01-20T16:28:52.309Z,-2.38
2019-01-20T16:31:22.854Z,-2.36
2019-01-20T16:33:53.762Z,-2.43
2019-01-20T16:36:24.285Z,-2.48
2019-01-20T16:38:54.825Z,-2.54
2019-01-20T16:41:25.417Z,-2.61
2019-01-20T16:43:56.035Z,-2.68
2019-01-20T16:46:26.970Z,-2.71
2019-01-20T16:48:58.142Z,-2.80
2019-01-20T16:51:28.727Z,-2.85
2019-01-20T16:53:59.402Z,-2.91
2019-01-20T16:56:30.103Z,-2.97
2019-01-20T16:59:00.731Z,-3.05
2019-01-20T17:01:32.630Z,-3.17
2019-01-20T17:04:03.151Z,-3.26
2019-01-20T17:06:33.814Z,-3.29
2019-01-20T17:09:07.770Z,-3.33
2019-01-20T17:11:39.357Z,-3.36
2019-01-20T17:14:09.869Z,-3.39
2019-01-20T17:16:40.487Z,-3.35
2019-01-20T17:19:17.230Z,-3.37
2019-01-20T17:21:44.272Z,-3.35
2019-01-20T17:24:14.770Z,-3.37
2019-01-20T17:26:45.385Z,-3.36
2019-01-20T17:29:16.082Z,-3.35
2019-01-20T17:31:46.599Z,-3.43
2019-01-20T17:34:17.149Z,-3.51
2019-01-20T17:36:47.690Z,-3.48
2019-01-20T17:39:18.384Z,-3.54
2019-01-20T17:41:49.459Z,-3.72
2019-01-20T17:44:20.184Z,-3.95
2019-01-20T17:46:50.828Z,-3.98
2019-01-20T17:49:21.497Z,-3.96
2019-01-20T17:51:52.126Z,-3.97
2019-01-20T17:54:23.274Z,-4.05
2019-01-20T17:59:30.164Z,-4.29
2019-01-20T18:02:00.662Z,-4.33
2019-01-20T18:04:31.247Z,-4.21
2019-01-20T18:07:01.747Z,-4.29
2019-01-20T18:09:32.247Z,-4.32
2019-01-20T18:12:02.793Z,-4.27
2019-01-20T18:14:33.329Z,-4.28
2019-01-20T18:17:03.946Z,-4.21
2019-01-20T18:19:34.509Z,-4.10
2019-01-20T18:22:05.160Z,-4.03
2019-01-20T18:24:35.696Z,-3.82
2019-01-20T18:27:06.410Z,-3.74
2019-01-20T18:29:36.997Z,-3.69
2019-01-20T18:32:07.629Z,-3.59
2019-01-20T18:34:38.207Z,-3.59
2019-01-20T18:37:09.765Z,-3.49
2019-01-20T18:39:40.290Z,-3.53
2019-01-20T18:42:10.923Z,-3.56
2019-01-20T18:44:41.443Z,-3.58
2019-01-20T18:47:12.011Z,-3.50
2019-01-20T18:49:42.591Z,-3.64
2019-01-20T18:52:13.283Z,-3.60
2019-01-20T18:54:43.791Z,-3.54
2019-01-20T18:57:14.320Z,-3.50
2019-01-20T18:59:44.884Z,-3.51
2019-01-20T19:02:15.456Z,-3.49
2019-01-20T19:04:46.011Z,-3.50
2019-01-20T19:07:16.599Z,-3.54
2019-01-20T19:09:47.229Z,-3.63
2019-01-20T19:12:17.781Z,-3.68
2019-01-20T19:14:48.374Z,-3.57
2019-01-20T19:17:19.000Z,-3.72
2019-01-20T19:19:49.571Z,-3.63
2019-01-20T19:22:20.129Z,-3.55
2019-01-20T19:24:50.713Z,-3.61
2019-01-20T19:27:21.268Z,-3.62
2019-01-20T19:29:51.933Z,-3.76
2019-01-20T19:32:22.500Z,-3.63
2019-01-20T19:34:53.160Z,-3.66
2019-01-20T19:37:23.732Z,-3.59
2019-01-20T19:39:54.297Z,-3.57
2019-01-20T19:42:24.881Z,-3.47
2019-01-20T19:44:55.474Z,-3.59
2019-01-20T19:47:26.135Z,-3.73
2019-01-20T19:49:56.720Z,-3.73
2019-01-20T19:52:27.350Z,-3.77
2019-01-20T19:54:58.001Z,-3.86
2019-01-20T19:57:28.610Z,-3.82
2019-01-20T19:59:59.151Z,-3.84
2019-01-20T20:02:29.852Z,-3.86
2019-01-20T20:05:00.366Z,-3.86
2019-01-20T20:07:30.978Z,-3.80
2019-01-20T20:10:01.546Z,-3.77
2019-01-20T20:12:32.196Z,-3.78
2019-01-20T20:15:02.792Z,-3.75
2019-01-20T20:17:33.276Z,-3.79
2019-01-20T20:20:04.017Z,-3.80
2019-01-20T20:22:34.578Z,-3.72
2019-01-20T20:25:06.230Z,-3.69
2019-01-20T20:27:36.784Z,-3.80
2019-01-20T20:30:13.216Z,-3.63
2019-01-20T20:32:43.809Z,-3.78
2019-01-20T20:35:14.418Z,-3.71
2019-01-20T20:37:44.939Z,-3.77
2019-01-20T20:40:17.288Z,-3.63
2019-01-20T20:42:47.951Z,-3.61
2019-01-20T20:45:21.061Z,-3.61
2019-01-20T20:47:51.565Z,-3.62
2019-01-20T20:50:22.175Z,-3.58
2019-01-20T20:52:52.896Z,-3.61
2019-01-20T20:55:23.470Z,-3.66
2019-01-20T20:57:53.998Z,-3.62
2019-01-20T21:00:43.692Z,-3.52
2019-01-20T21:03:29.778Z,-3.63
2019-01-20T21:06:00.379Z,-3.84
2019-01-20T21:08:31.027Z,-3.82
2019-01-20T21:11:01.535Z,-3.71
2019-01-20T21:13:32.110Z,-3.71
2019-01-20T21:16:02.677Z,-3.82
2019-01-20T21:18:33.175Z,-3.85
2019-01-20T21:21:03.751Z,-3.95
2019-01-20T21:23:34.379Z,-4.03
2019-01-20T21:26:05.232Z,-3.99
2019-01-20T21:28:35.818Z,-3.94
2019-01-20T21:31:06.378Z,-3.88
2019-01-20T21:36:06.564Z,-3.87
2019-01-20T21:38:37.064Z,-3.84
2019-01-20T21:41:08.353Z,-3.70
2019-01-20T21:43:38.872Z,-3.92
2019-01-20T21:46:09.449Z,-3.93
2019-01-20T21:48:41.448Z,-3.98
2019-01-20T21:51:12.150Z,-3.96
2019-01-20T21:53:42.678Z,-3.95
2019-01-20T21:56:14.093Z,-3.95
2019-01-20T21:58:44.775Z,-3.95
2019-01-20T22:01:15.297Z,-3.90
2019-01-20T22:03:45.878Z,-3.88
2019-01-20T22:06:16.449Z,-3.97
2019-01-20T22:08:48.923Z,-3.99
2019-01-20T22:11:19.487Z,-4.03
2019-01-20T22:13:50.157Z,-3.93
2019-01-20T22:16:20.773Z,-3.84
2019-01-20T22:18:51.338Z,-3.89
2019-01-20T22:21:21.906Z,-3.94
2019-01-20T22:23:52.940Z,-3.94
2019-01-20T22:26:23.479Z,-4.07
2019-01-20T22:28:55.083Z,-3.97
2019-01-20T22:31:25.772Z,-4.01
2019-01-20T22:33:56.412Z,-3.91
2019-01-20T22:36:27.015Z,-3.97
2019-01-20T22:38:57.689Z,-4.01
2019-01-20T22:41:28.285Z,-3.98
2019-01-20T22:43:58.880Z,-3.94
2019-01-20T22:46:29.428Z,-3.92
2019-01-20T22:49:01.328Z,-3.90
2019-01-20T22:51:32.501Z,-3.90
2019-01-20T22:54:03.004Z,-3.85
2019-01-20T22:56:33.573Z,-3.81
2019-01-20T22:59:04.707Z,-3.84
2019-01-20T23:01:36.376Z,-3.83
2019-01-20T23:04:07.425Z,-3.80
2019-01-20T23:06:38.098Z,-3.96
2019-01-20T23:09:10.435Z,-3.91
2019-01-20T23:11:41.936Z,-3.90
2019-01-20T23:14:12.953Z,-3.96
2019-01-20T23:16:45.236Z,-3.86
2019-01-20T23:19:15.866Z,-3.83
2019-01-20T23:21:46.434Z,-3.82
2019-01-20T23:24:17.041Z,-3.80
2019-01-20T23:26:47.651Z,-3.78
2019-01-20T23:29:18.264Z,-3.81
2019-01-20T23:31:48.818Z,-3.88
2019-01-20T23:34:19.436Z,-3.79
2019-01-20T23:36:50.071Z,-3.79
2019-01-20T23:39:20.630Z,-3.89
2019-01-20T23:41:51.219Z,-3.90
2019-01-20T23:44:21.796Z,-3.90
2019-01-20T23:46:52.361Z,-4.00
2019-01-20T23:49:22.979Z,-3.99
2019-01-20T23:51:53.615Z,-3.93
2019-01-20T23:54:24.227Z,-4.24
2019-01-20T23:56:54.836Z,-4.03
2019-01-20T23:59:25.527Z,-4.05
